This is the latest recevied weather packets stored in our database for station/object KC1DMA. If no packets are shown the sender has not sent any weather packets the latest 10 day(s).
| Time | Temp. | Humidity | Pressure | Rain* | Wind** | Luminosity | Snow |
|---|---|---|---|---|---|---|---|
| 1777633883 | 6.11° C | 81% | 1013.4 hPa | - | - | 95 W/m² | - |
| 1777633581 | 5° C | 85% | 1013.4 hPa | - | - | 80 W/m² | - |
| 1777632976 | 3.89° C | 91% | 1013 hPa | - | - | 40 W/m² | - |
| 1777632673 | 3.89° C | 94% | 1013.1 hPa | - | - | 43 W/m² | - |
| 1777632066 | 3.33° C | 94% | 1013.2 hPa | - | - | 30 W/m² | - |
| 1777631764 | 3.33° C | 95% | 1012.8 hPa | - | - | 28 W/m² | - |
| 1777631461 | 3.33° C | 95% | 1012.7 hPa | - | - | 25 W/m² | - |
| 1777631157 | 2.78° C | 95% | 1012.8 hPa | - | - | 23 W/m² | - |
| 1777630855 | 2.78° C | 95% | 1012.8 hPa | - | - | 20 W/m² | - |
| 1777630551 | 2.78° C | 95% | 1012.9 hPa | - | - | 18 W/m² | - |
| 1777630247 | 2.78° C | 95% | 1012.7 hPa | - | - | 15 W/m² | - |
| 1777629946 | 2.78° C | 94% | 1012.9 hPa | - | - | 12 W/m² | - |
| 1777629643 | 2.78° C | 94% | 1012.5 hPa | - | - | 9 W/m² | - |
| 1777629035 | 3.33° C | 94% | 1012.5 hPa | - | - | 4 W/m² | - |
| 1777628428 | 3.33° C | 94% | 1012.4 hPa | - | - | 1 W/m² | - |
| 1777628125 | 3.33° C | 94% | 1012.3 hPa | - | - | 0 W/m² | - |
| 1777627821 | 3.33° C | 94% | 1012.6 hPa | - | - | 0 W/m² | - |
| 1777627519 | 2.78° C | 94% | 1012.4 hPa | - | - | 0 W/m² | - |
| 1777627214 | 3.33° C | 93% | 1012.5 hPa | - | - | 0 W/m² | - |
| 1777626912 | 3.33° C | 93% | 1012.3 hPa | - | - | 0 W/m² | - |
| 1777626609 | 3.33° C | 92% | 1012.2 hPa | - | - | 0 W/m² | - |
| 1777626308 | 3.33° C | 92% | 1012.5 hPa | - | - | 0 W/m² | - |
| 1777626008 | 3.33° C | 91% | 1012.3 hPa | - | - | 0 W/m² | - |
| 1777625702 | 3.89° C | 91% | 1012.2 hPa | - | - | 0 W/m² | - |
| 1777625398 | 3.33° C | 90% | 1012.1 hPa | - | - | 0 W/m² | - |
* Rain since midnight (hover to see other rain measurements)
** Current wind speed in m/s (hover to see current wind gust speed)